Tiempo atmosférico en la estación meteorológica de Vitigudino, Salamanca (769 m.)



Fecha
DESCASC
Temp. máxima en grados centígrados (hora)
DESCASC
Temp. mínima en grados centígrados (hora)
DESCASC
Temp. media en grados centígrados
DESCASC
Racha de viento máxima en m/sg (hora)
DESCASC
Velocidad máxima media en intervalos de 10 minutos(hora)
DESCASC
Precipitaciones diarias en mm
DESCASC
Precipitaciones de 00:00 a 06:00 en mm
DESCASC
Precipitaciones de 06:00 a 12:00 en mm
DESCASC
Precipitaciones de 12:00 a 18:00 en mm
DESCASC
Precipitaciones de 18:00 a 24:00 en mm
DESCASC
31-03-2020 10.1 (16:10) 0.3 (10:40) 5.2 13.61 (00:40) 8.61 (00:10) 4.8 0 1 1.8 2
29-03-2020 18.6 (18:00) 1.8 (00:00) 10.2 4.72 (14:00) 1.94 (23:59) 0 0 0 0 0
28-03-2020 16.6 (17:30) 0.6 (00:00) 8.6 9.17 (12:40) 5.56 (11:30) 0 0 0 0 0
27-03-2020 13 (15:50) 0 (00:00) 6.5 11.11 (13:00) 7.5 (12:10) 0 0 0 0 0
26-03-2020 18.6 (16:20) 1.9 (00:00) 10.3 7.5 (23:59) 4.72 (23:59) 0 0 0 0 0
25-03-2020 20.6 (16:00) 2.9 (00:00) 11.8 10.83 (17:40) 7.78 (17:50) 0 0 0 0 0
24-03-2020 18.3 (16:20) 4.7 (00:00) 11.5 10.83 (12:50) 6.67 (12:50) 0 0 0 0 0
23-03-2020 16.7 (17:20) 4.3 (00:00) 10.5 10.83 (17:20) 6.39 (17:30) 0 0 0 0 0
22-03-2020 15.3 (17:10) 3.4 (01:30) 9.4 6.39 (19:30) 3.61 (16:30) 0 0 0 0 0
21-03-2020 10.1 (14:40) 4.5 (00:00) 7.3 7.22 (11:00) 4.72 (04:20) 7 2 2 3 0
20-03-2020 10.6 (00:00) 7.9 (00:00) 9.3 8.33 (16:10) 4.44 (15:00) 11.8 0 1.2 8.2 2.4
19-03-2020 16.5 (14:10) 6.6 (00:00) 11.5 4.72 (00:10) 3.33 (00:10) 0 0 0 0 0
18-03-2020 18.3 (16:30) 5.8 (00:00) 12 11.11 (12:50) 7.5 (12:40) 0 0 0 0 0
17-03-2020 14.7 (16:20) 4.3 (00:00) 9.5 16.39 (01:50) 10.83 (01:50) 0.2 0.2 0 0 0
16-03-2020 8.2 (17:50) 1 (00:00) 4.6 13.89 (12:50) 8.61 (13:00) 1.4 0.2 0.2 0.8 0.2
15-03-2020 18.7 (13:30) 0.9 (00:00) 9.8 15 (19:20) 10.56 (19:20) 0.6 0 0 0 0.6
14-03-2020 20.1 (17:10) 3.1 (00:00) 11.6 6.67 (10:40) 4.44 (10:40) 0 0 0 0 0
13-03-2020 16.5 (16:50) 6.7 (08:00) 11.6 10 (07:20) 6.67 (07:40) 0 0 0 0 0
12-03-2020 24.3 (14:30) 8.7 (00:00) 16.5 7.5 (23:59) 4.72 (23:59) 0 0 0 0 0
11-03-2020 26 (15:30) 5.1 (00:00) 15.5 5.83 (13:20) 3.89 (14:40) 0 0 0 0 0
10-03-2020 23.5 (17:00) 4.1 (00:00) 13.8 6.11 (15:00) 4.44 (15:00) 0 0 0 0 0
09-03-2020 17.3 (16:40) 1.3 (00:00) 9.3 6.67 (02:10) 4.72 (02:10) 0 0 0 0 0
08-03-2020 12.7 (16:50) 0.5 (00:00) 6.6 7.5 (13:40) 5.28 (13:40) 0 0 0 0 0
07-03-2020 16.9 (16:30) 1 (00:00) 8.9 5.83 (17:20) 3.61 (00:30) 0 0 0 0 0
06-03-2020 11.4 (15:10) 3.2 (00:00) 7.3 16.67 (15:40) 10.56 (15:40) 0.6 0.6 0 0 0
05-03-2020 14.1 (15:40) 3.5 (00:00) 8.8 17.22 (08:00) 11.67 (08:00) 4 1 2.8 0 0.2
04-03-2020 15.4 (16:30) 9.1 (08:00) 12.3 9.72 (13:00) 7.22 (01:40) 0.4 0.4 0 0 0
03-03-2020 16.5 (14:50) 3.7 (00:00) 10.1 17.22 (15:00) 11.94 (15:00) 0 0 0 0 0
02-03-2020 10.4 (03:30) 2.4 (00:00) 6.4 25.83 (04:50) 17.5 (04:50) 4 3.2 0.2 0.6 0

Gráficas

Temp. máximas Temp. mínimas Temp. medias Precipitaciones Rachas de viento máximas Velocidades máximas media en intervalos de 10 minutos

Datos horarios

Fecha y hora oficial Temperatura (ºC) Velocidad del viento (km/h) Dirección del viento Racha (km/h) Dirección de racha Precipitación (mm) Presión (hPa) Tendencia (hPa) Humedad (%)
2020-03-31 23:00:00 7.8 9 Sudoeste 15 Sur 0.4 918.2 2.2 89
2020-03-31 22:00:00 8.2 5 Sur 16 Sudeste 0.6 917.5 1.9 86
2020-03-31 21:00:00 8.9 6 Sudeste 13 Sur 0.4 916.4 1 79
2020-03-31 20:00:00 10 9 Sudeste 18 Este 0 916 0.5 70
2020-03-31 19:00:00 9.7 10 Este 27 Este 0 915.6 -0.1 73
2020-03-31 18:00:00 9.9 17 Este 26 Este 0 915.4 -0.5 73
2020-03-31 17:00:00 9 17 Este 32 Nordeste 0 915.5 -0.4 73
2020-03-31 16:00:00 9.1 20 Este 33 Este 0.6 915.7 -0.3 80
2020-03-31 15:00:00 7.8 21 Este 34 Este 0.2 915.9 0 78
2020-03-31 14:00:00 6.4 18 Este 33 Este 0.6 915.9 0 84
2020-03-31 13:00:00 3.9 23 Este 36 Este 0.4 916 -0.2 86
2020-03-31 12:00:00 1.1 15 Nordeste 33 Nordeste 0.6 915.9 -0.5 93
2020-03-31 11:00:00 0.5 22 Nordeste 44 Nordeste 0.4 915.9 -0.4 91
2020-03-31 10:00:00 0.8 26 Nordeste 44 Este 0 916.2 -0.4 82
2020-03-31 09:00:00 0.6 25 Nordeste 41 Nordeste 0 916.4 -0.8 80
2020-03-31 08:00:00 0.7 23 Nordeste 38 Nordeste 0 916.3 -1.5 77
2020-03-31 07:00:00 1 24 Nordeste 44 Nordeste 0 916.6 -2 73
2020-03-31 06:00:00 1.1 20 Nordeste 39 Nordeste 0 917.2 -2.3 71
2020-03-31 05:00:00 1.2 24 Nordeste 43 Este 0 917.8 -2.6 67
2020-03-31 04:00:00 1.2 26 Nordeste 44 Nordeste 0 918.6 -2.8 65
2020-03-31 03:00:00 1.4 27 Nordeste 47 Este 0 919.5 -2.2 65
2020-03-31 02:00:00 1.6 27 Este 46 Este 0 920.4 -1.7 63
2020-03-31 01:00:00 2.2 30 Nordeste 49 Este 0 921.4 -0.8 60
2020-03-31 00:00:00 2.9 32 Nordeste 55 Nordeste 0 921.7 -0.4 56
2020-03-30 23:00:00 3.3 26 Este 44 Este 0 922.1 0 52
2020-03-30 22:00:00 3.4 20 Este 37 Este 0 922.2 -0.3 52
2020-03-30 21:00:00 3.9 23 Este 47 Este 0 922.1 -1.1 50
2020-03-30 20:00:00 3.8 31 Este 55 Este 0 922.1 -1.7 51
2020-03-30 19:00:00 3.9 27 Este 48 Este 0 922.5 -1.8 54
2020-03-30 18:00:00 4.7 24 Este 47 Este 0 923.2 -1.7 51
2020-03-30 17:00:00 4.3 31 Este 45 Este 0 923.8 -1.9 49
2020-03-30 16:00:00 4.9 28 Este 49 Nordeste 0 924.3 -1.9 51
2020-03-30 15:00:00 5.9 30 Este 50 Este 0 924.9 -1.6 49
2020-03-30 14:00:00 6.2 32 Este 49 Nordeste 0 925.7 -0.7 49
2020-03-30 13:00:00 5 35 Este 57 Nordeste 0 926.2 -0.5 52
2020-03-30 12:00:00 5 37 Este 55 Este 0 926.5 0.4 55
2020-03-30 11:00:00 4.3 38 Nordeste 57 Nordeste 0 926.4 0.3 62
2020-03-30 10:00:00 3.5 33 Este 50 Nordeste 0 926.7 0.7 65
2020-03-30 09:00:00 3.5 29 Este 45 Este 0 926.1 0 76
2020-03-30 08:00:00 3.3 24 Este 48 Nordeste 0 926.1 -0.4 75
2020-03-30 07:00:00 4.2 31 Nordeste 50 Nordeste 0 926 -0.6 70
2020-03-30 06:00:00 4.9 26 Nordeste 42 Este 0 926.1 -0.9 72
2020-03-30 05:00:00 5.3 23 Este 33 Este 0 926.5 -0.6 78
2020-03-30 04:00:00 5.6 22 Este 39 Nordeste 0 926.6 -0.8 77
2020-03-30 03:00:00 6.4 25 Nordeste 40 Nordeste 0 927 0.2 73
2020-03-30 02:00:00 7.1 26 Nordeste 37 Nordeste 0 927.1 0.2 71
2020-03-30 01:00:00 8.8 28 Este 42 Este 0 927.4 0.6 60
2020-03-30 00:00:00 9.2 7 Nordeste 10 Nordeste 0 926.8 0.1 62
2020-03-29 23:00:00 9.9 5 Nordeste 8 Norte 0 926.9 0.1 54
2020-03-29 22:00:00 11 6 Norte 8 Norte 0 926.8 0 47
2020-03-29 21:00:00 13 5 Norte 6 Norte 0 926.7 -0.2 46
2020-03-29 20:00:00 15.6 5 Noroeste 10 Norte 0 926.8 -0.7 45
2020-03-29 19:00:00 17 4 Norte 12 Norte 0 926.8 -1.3 31
2020-03-29 18:00:00 18 6 Noroeste 12 Norte 0 926.9 -1.8 32
2020-03-29 17:00:00 17.4 6 Sudoeste 13 Sudoeste 0 927.5 -1.7 34
2020-03-29 16:00:00 17.5 5 Este 14 Este 0 928.1 -1.5 35
2020-03-29 15:00:00 16 5 Nordeste 16 Este 0 928.7 -1.1 36
2020-03-29 14:00:00 16.7 6 Nordeste 17 Nordeste 0 929.2 -0.7 36
2020-03-29 13:00:00 16.1 5 Este 13 Nordeste 0 929.6 -0.1 38
2020-03-29 12:00:00 14.9 5 Norte 13 Nordeste 0 929.8 0.1 46
2020-03-29 11:00:00 12.5 3 Sudoeste 6 Sur 0 929.9 0.5 61
2020-03-29 10:00:00 7.9 3 Sudeste 5 Sudeste 0 929.7 0.4 70
2020-03-29 09:00:00 2.6 0 Calma 5 Este 0 929.7 0.3 86
2020-03-29 08:00:00 2.2 3 Sudeste 7 Sur 0 929.4 -0.1 83
2020-03-29 07:00:00 2.5 2 Sur 5 Sur 0 929.3 -0.3 81
2020-03-29 06:00:00 3.3 3 Sur 5 Sur 0 929.4 -0.5 77
2020-03-29 05:00:00 3.8 3 Sur 6 Sur 0 929.5 -0.3 74
2020-03-29 03:00:00 4.4 3 Sudeste 6 Sudoeste 0 929.9 0 72
2020-03-29 01:00:00 5.3 2 Sudoeste 5 Sudoeste 0 929.8 0.3 70
2020-03-29 00:00:00 6.5 3 Sudoeste 5 Sudoeste 0 929.9 0.9 65
2020-03-28 23:00:00 7.8 2 Sudoeste 12 Sudoeste 0 929.9 1.5 62
2020-03-28 22:00:00 8.7 4 Este 5 Nordeste 0 929.5 1.5 55
2020-03-28 21:00:00 10.1 5 Nordeste 8 Nordeste 0 929 1.4 50
2020-03-28 20:00:00 12.1 5 Nordeste 9 Norte 0 928.4 0.9 45
2020-03-28 19:00:00 14.6 5 Nordeste 15 Este 0 928 0.5 36
2020-03-28 18:00:00 16.1 9 Este 16 Este 0 927.6 -0.3 33
2020-03-28 17:00:00 15.5 9 Este 21 Este 0 927.5 -0.8 32
2020-03-28 16:00:00 16.3 9 Este 24 Este 0 927.5 -1 34
2020-03-28 15:00:00 15.9 11 Este 26 Este 0 927.9 -0.8 34
2020-03-28 14:00:00 14.6 14 Este 32 Este 0 928.3 -0.5 35
2020-03-28 13:00:00 13.9 14 Este 33 Este 0 928.5 0 37
2020-03-28 12:00:00 13.1 17 Este 32 Nordeste 0 928.7 0.8 44
2020-03-28 11:00:00 11.5 17 Este 27 Este 0 928.8 1.3 46
2020-03-28 10:00:00 8.5 13 Nordeste 22 Nordeste 0 928.5 1.5 58
2020-03-28 09:00:00 6 12 Nordeste 17 Nordeste 0 927.9 1.3 67
2020-03-28 08:00:00 1.6 7 Este 12 Nordeste 0 927.5 1.2 81
2020-03-28 07:00:00 0.6 5 Este 10 Este 0 927 0.7 84
2020-03-28 06:00:00 0.9 6 Este 9 Este 0 926.6 0.2 86
2020-03-28 05:00:00 1 5 Este 7 Este 0 926.3 0 85
2020-03-28 04:00:00 0.9 3 Nordeste 8 Norte 0 926.3 0.4 85
2020-03-28 03:00:00 1.2 6 Norte 8 Norte 0 926.4 0.7 84
2020-03-28 02:00:00 1.8 0 Calma 4 Sudeste 0 926.3 1 79
2020-03-28 01:00:00 3.1 2 Sudeste 8 Sudeste 0 925.9 1.1 75
2020-03-28 00:00:00 3.8 3 Sudeste 6 Sur 0 925.7 1.7 71
2020-03-27 23:00:00 4.5 2 Sudeste 16 Sudeste 0 925.3 2.2 67
2020-03-27 22:00:00 6 10 Sudeste 19 Sudeste 0 924.8 2.1 55
2020-03-27 21:00:00 6.1 12 Este 19 Este 0 924 1.7 57
2020-03-27 20:00:00 7.6 10 Nordeste 21 Este 0 923.1 1 54
2020-03-27 19:00:00 10.3 14 Este 27 Este 0 922.7 0.5 41
2020-03-27 18:00:00 12.1 15 Nordeste 32 Este 0 922.3 -0.1 37
2020-03-27 17:00:00 12.9 14 Este 29 Este 0 922.1 -0.4 32
2020-03-27 16:00:00 12.5 16 Este 34 Este 0 922.2 -0.4 28
2020-03-27 15:00:00 12.4 22 Este 38 Nordeste 0 922.4 -0.7 35
2020-03-27 14:00:00 11.4 26 Este 39 Este 0 922.5 -0.5 34
2020-03-27 13:00:00 10.4 24 Este 40 Este 0 922.6 -0.1 41
2020-03-27 12:00:00 8.9 21 Nordeste 38 Nordeste 0 923.1 0.9 47
2020-03-27 11:00:00 7 23 Nordeste 37 Nordeste 0 923 1.1 48
2020-03-27 10:00:00 4.9 24 Nordeste 36 Nordeste 0 922.7 1 56
2020-03-27 09:00:00 2.8 22 Nordeste 34 Nordeste 0 922.2 0.7 63
2020-03-27 08:00:00 0.3 15 Nordeste 32 Nordeste 0 921.9 0.5 72
2020-03-27 07:00:00 0.3 17 Nordeste 31 Nordeste 0 921.7 0.4 69
2020-03-27 06:00:00 1 18 Este 28 Este 0 921.5 0.1 69
2020-03-27 05:00:00 1.5 19 Este 31 Este 0 921.4 -0.3 71
2020-03-27 04:00:00 2.4 21 Este 36 Este 0 921.3 -0.2 68
2020-03-27 03:00:00 2.9 20 Este 31 Este 0 921.4 0.2 71
2020-03-27 02:00:00 3.6 21 Este 35 Este 0 921.7 1.1 70
2020-03-27 01:00:00 4.6 22 Este 33 Este 0 921.5 1.1 68
2020-03-27 00:00:00 5.6 17 Este 27 Este 0 921.2 0.9 65
2020-03-26 23:00:00 6.2 14 Noroeste 21 Oeste 0 920.6 0.5 56
2020-03-26 22:00:00 6 10 Oeste 15 Oeste 0 920.4 0.4 56
2020-03-26 21:00:00 8.4 8 Oeste 12 Sudoeste 0 920.3 0 46
2020-03-26 20:00:00 12 7 Oeste 10 Oeste 0 920.1 -0.5 40
2020-03-26 19:00:00 16.3 3 Sudoeste 12 Noroeste 0 920 -1.1 24
2020-03-26 18:00:00 18 8 Noroeste 18 Oeste 0 920.3 -1.3 28
2020-03-26 17:00:00 18.4 12 Oeste 19 Oeste 0 920.6 -1.5 32
2020-03-26 16:00:00 17.4 6 Noroeste 19 Oeste 0 921.1 -1.4 33
2020-03-26 15:00:00 16.8 10 Oeste 18 Oeste 0 921.6 -1.4 42
2020-03-26 14:00:00 16.5 9 Oeste 21 Oeste 0 922.1 -1.3 44
2020-03-26 13:00:00 15.1 6 Oeste 19 Oeste 0 922.5 -1.2 48
2020-03-26 12:00:00 14.1 8 Oeste 17 Oeste 0 923 -0.8 56
2020-03-26 11:00:00 12.2 7 Oeste 16 Oeste 0 923.4 -0.1 67
2020-03-26 10:00:00 10.3 12 Oeste 17 Sudoeste 0 923.7 0.4 79
2020-03-26 09:00:00 7.7 10 Oeste 14 Sudoeste 0 923.8 0.3 92
2020-03-26 08:00:00 2.7 3 Oeste 5 Oeste 0 923.5 -0.1 94
2020-03-26 07:00:00 2.6 3 Sudoeste 4 Sudoeste 0 923.3 -0.7 93
2020-03-26 06:00:00 3.2 3 Sudoeste 4 Sudoeste 0 923.5 -1.1 92
2020-03-26 05:00:00 3.7 0 Calma 4 Sur 0 923.6 -1.4 90
2020-03-26 04:00:00 4.3 3 Sur 5 Sur 0 924 -1.1 88
2020-03-26 03:00:00 5.2 3 Sudeste 4 Sur 0 924.6 -0.3 85
2020-03-26 02:00:00 6.5 3 Sudeste 9 Oeste 0 925 0.1 85
2020-03-26 01:00:00 7 6 Oeste 12 Noroeste 0 925.1 0.3 80
2020-03-26 00:00:00 8.4 10 Noroeste 19 Noroeste 0 924.9 0.4 78
2020-03-25 23:00:00 10.4 14 Noroeste 26 Oeste 0 924.9 0.6 74
2020-03-25 22:00:00 11.1 14 Oeste 24 Oeste 0 924.8 0.7 79
2020-03-25 21:00:00 10.9 16 Oeste 26 Oeste 0 924.5 0.4 76
2020-03-25 20:00:00 12.3 14 Oeste 24 Oeste 0 924.3 -0.1 67
2020-03-25 19:00:00 15.7 19 Oeste 33 Oeste 0 924.1 -0.8 53
2020-03-25 18:00:00 18 27 Oeste 39 Oeste 0 924.1 -1.5 45
2020-03-25 17:00:00 19.7 24 Noroeste 36 Oeste 0 924.4 -1.8 40
2020-03-25 16:00:00 20.6 21 Oeste 35 Oeste 0 924.9 -1.8 41
2020-03-25 15:00:00 20.2 24 Oeste 35 Oeste 0 925.6 -1.5 45
2020-03-25 14:00:00 19.3 20 Oeste 33 Oeste 0 926.2 -1.3 49
2020-03-25 13:00:00 18.5 16 Noroeste 28 Oeste 0 926.7 -0.7 51
2020-03-25 12:00:00 17.6 15 Oeste 23 Oeste 0 927.1 -0.2 56
2020-03-25 11:00:00 14.2 9 Oeste 14 Oeste 0 927.5 0.3 67
2020-03-25 10:00:00 10.9 8 Sudoeste 12 Sudoeste 0 927.4 0.4 76
2020-03-25 09:00:00 7.1 4 Sur 7 Sur 0 927.3 0.4 87
2020-03-25 08:00:00 3 3 Nordeste 5 Nordeste 0 927.2 0.4 91
2020-03-25 07:00:00 3.2 4 Este 8 Norte 0 927 0.2 90
2020-03-25 06:00:00 3.2 2 Sudeste 6 Sudeste 0 926.9 -0.2 89
2020-03-25 05:00:00 3.4 4 Este 7 Nordeste 0 926.8 -0.3 84
2020-03-25 04:00:00 4.3 3 Sur 5 Sur 0 926.8 -0.1 84
2020-03-25 03:00:00 5.4 4 Sur 8 Sudeste 0 927.1 0.3 79
2020-03-25 02:00:00 6 5 Este 10 Sur 0 927.1 0.4 76
2020-03-25 01:00:00 6.5 6 Este 12 Este 0 926.9 0.1 76
2020-03-25 00:00:00 7.3 9 Este 16 Este 0 926.8 0.4 75
2020-03-24 23:00:00 7.9 10 Este 17 Nordeste 0 926.7 0.7 75
2020-03-24 22:00:00 8.4 11 Nordeste 15 Nordeste 0 926.8 1.2 73
2020-03-24 21:00:00 9.6 8 Nordeste 14 Nordeste 0 926.4 0.9 67
2020-03-24 20:00:00 11.4 8 Nordeste 15 Nordeste 0 926 0.5 61
2020-03-24 19:00:00 14.1 7 Nordeste 18 Nordeste 0 925.6 0 50
2020-03-24 18:00:00 15.9 14 Nordeste 22 Nordeste 0 925.5 -0.3 48
2020-03-24 17:00:00 16.3 15 Nordeste 27 Nordeste 0 925.5 -0.8 47
2020-03-24 16:00:00 17.3 19 Nordeste 32 Nordeste 0 925.6 -1.3 44
2020-03-24 15:00:00 16.2 17 Nordeste 31 Este 0 925.8 -1.3 48
2020-03-24 14:00:00 16.4 20 Nordeste 37 Este 0 926.3 -1 48
2020-03-24 13:00:00 15.2 21 Este 39 Este 0 926.9 -0.2 54
2020-03-24 12:00:00 14.2 21 Este 32 Nordeste 0 927.1 0.1 56
2020-03-24 11:00:00 11.9 19 Nordeste 29 Nordeste 0 927.3 0.7 73
2020-03-24 10:00:00 9.8 18 Este 32 Nordeste 0 927.1 1 77
2020-03-24 09:00:00 7.5 15 Nordeste 23 Nordeste 0 927 1.1 83
2020-03-24 08:00:00 5 12 Nordeste 22 Nordeste 0 926.6 0.8 87
2020-03-24 07:00:00 4.7 15 Nordeste 23 Este 0 926.1 0.2 88
2020-03-24 06:00:00 4.8 16 Este 24 Este 0 925.9 -0.2 87
2020-03-24 05:00:00 5 16 Este 24 Este 0 925.8 -0.4 87
2020-03-24 04:00:00 5 15 Este 20 Este 0 925.9 -0.4 87
2020-03-24 03:00:00 5 12 Este 21 Este 0 926.1 -0.2 86
2020-03-24 02:00:00 5.5 14 Este 19 Este 0 926.2 0.1 86
2020-03-24 01:00:00 6.2 14 Este 22 Este 0 926.3 0.4 85
2020-03-24 00:00:00 6 9 Este 15 Este 0 926.3 0.9 85
2020-03-23 23:00:00 6.8 12 Este 18 Este 0 926.1 0.9 84
2020-03-23 22:00:00 7.2 10 Este 17 Este 0 925.9 0.9 81
2020-03-23 21:00:00 8 10 Este 17 Nordeste 0 925.4 0.6 80
2020-03-23 20:00:00 9.2 12 Nordeste 20 Nordeste 0 925.2 0.8 77
2020-03-23 19:00:00 11.2 12 Este 35 Este 0 925 0.3 69
2020-03-23 18:00:00 12.8 13 Este 39 Este 0 924.8 -0.2 62
2020-03-23 17:00:00 15.6 18 Nordeste 31 Nordeste 0 924.4 -1.4 50
2020-03-23 16:00:00 15.7 19 Este 33 Este 0 924.7 -1.5 51
2020-03-23 15:00:00 14.7 19 Nordeste 29 Nordeste 0 925 -1.6 55
2020-03-23 14:00:00 13.5 14 Nordeste 25 Nordeste 0 925.8 -0.9 62
2020-03-23 13:00:00 14.3 14 Nordeste 25 Este 0 926.2 -0.2 61
2020-03-23 12:00:00 13.2 16 Este 24 Nordeste 0 926.6 0.5 68
2020-03-23 11:00:00 9.7 15 Nordeste 27 Nordeste 0 926.7 1 81
2020-03-23 10:00:00 8.4 17 Nordeste 28 Nordeste 0 926.4 1.1 86
2020-03-23 09:00:00 5.5 19 Nordeste 30 Nordeste 0 926.1 1.2 94
2020-03-23 08:00:00 4.8 17 Nordeste 30 Este 0 925.7 1.3 94
2020-03-23 07:00:00 4.4 14 Nordeste 22 Nordeste 0 925.3 1 94
2020-03-23 06:00:00 4.9 12 Nordeste 19 Nordeste 0 924.9 0.5 92
2020-03-23 05:00:00 5.8 14 Nordeste 19 Nordeste 0 924.4 -0.2 92
2020-03-23 04:00:00 6.2 10 Nordeste 16 Nordeste 0 924.3 -0.6 90
2020-03-23 03:00:00 6.4 9 Nordeste 14 Nordeste 0 924.4 -0.6 87
2020-03-23 02:00:00 7 8 Nordeste 12 Nordeste 0 924.6 -0.4 87
2020-03-23 01:00:00 6.7 9 Nordeste 13 Nordeste 0 924.9 0.3 85
2020-03-23 00:00:00 8 6 Nordeste 10 Nordeste 0 925 1 83
2020-03-22 23:00:00 8.3 4 Noroeste 11 Noroeste 0 925 1.5 83
2020-03-22 22:00:00 7.9 4 Este 6 Este 0 924.6 1.6 80
2020-03-22 21:00:00 8.6 5 Nordeste 8 Nordeste 0 924 1.4 75
2020-03-22 20:00:00 10.6 8 Nordeste 23 Nordeste 0 923.5 1 72
2020-03-22 19:00:00 13.1 9 Nordeste 20 Nordeste 0 923 0.3 63
2020-03-22 18:00:00 14.1 9 Nordeste 20 Nordeste 0 922.6 -0.7 57
2020-03-22 17:00:00 14.6 10 Nordeste 22 Nordeste 0 922.5 -1.3 60
2020-03-22 16:00:00 14.1 13 Nordeste 21 Nordeste 0 922.7 -1.3 63
2020-03-22 15:00:00 12.8 11 Nordeste 18 Nordeste 0 923.3 -0.7 68
2020-03-22 14:00:00 11.5 10 Nordeste 19 Nordeste 0 923.8 -0.1 70
2020-03-22 13:00:00 10.8 9 Nordeste 18 Nordeste 0 924 0.5 72
2020-03-22 12:00:00 10.4 8 Este 16 Este 0 924 0.9 79
2020-03-22 11:00:00 9 10 Este 18 Nordeste 0 923.9 1.2 85
2020-03-22 10:00:00 7.7 9 Nordeste 15 Nordeste 0 923.5 1.1 95
2020-03-22 09:00:00 6.4 8 Norte 14 Norte 0 923.1 0.9 96
2020-03-22 08:00:00 5.8 3 Noroeste 8 Norte 0 922.7 0.7 95
2020-03-22 07:00:00 5.4 0 Calma 8 Nordeste 0 922.4 0.3 95
2020-03-22 06:00:00 5.2 4 Nordeste 10 Nordeste 0 922.2 -0.1 95
2020-03-22 05:00:00 5.1 6 Nordeste 10 Nordeste 0 922 -0.5 95
2020-03-22 04:00:00 5.4 6 Norte 11 Norte 0 922.1 -0.4 95
2020-03-22 03:00:00 5.5 5 Nordeste 9 Este 0 922.3 -0.3 95
2020-03-22 02:00:00 4.5 5 Nordeste 9 Nordeste 0 922.5 0 94
2020-03-22 01:00:00 4.1 4 Este 6 Nordeste 0 922.5 0.2 93
2020-03-22 00:00:00 4.5 5 Nordeste 7 Nordeste 0 922.6 0.6 92
2020-03-21 23:00:00 5 5 Nordeste 7 Nordeste 0 922.5 0.9 91
2020-03-21 22:00:00 6 4 Nordeste 8 Norte 0 922.3 1 90
2020-03-21 21:00:00 5.7 6 Norte 9 Nordeste 0 922 0.8 88
2020-03-21 20:00:00 7.1 7 Nordeste 10 Nordeste 0 921.6 0.3 84
2020-03-21 19:00:00 8 5 Nordeste 8 Nordeste 0 921.3 -0.2 83
2020-03-21 18:00:00 8.5 6 Este 11 Este 0.4 921.2 -0.5 81
2020-03-21 17:00:00 8.6 2 Nordeste 11 Sudoeste 0.8 921.3 -0.9 81
2020-03-21 16:00:00 9.4 3 Sur 8 Sudoeste 0.2 921.5 -1.2 76
2020-03-21 15:00:00 9.5 5 Sur 12 Sudeste 0 921.7 -1.1 73
2020-03-21 14:00:00 9.1 4 Sudeste 16 Sur 0.2 922.2 -0.2 73
2020-03-21 13:00:00 7.4 12 Sur 24 Sudeste 1.4 922.7 0.8 86
2020-03-21 12:00:00 6.8 9 Sur 22 Sudoeste 0.8 922.8 1.2 89
2020-03-21 11:00:00 6.8 14 Sudoeste 26 Sudoeste 0 922.4 0.7 86
2020-03-21 10:00:00 7 10 Sur 18 Sudeste 0 921.9 0.5 89
2020-03-21 09:00:00 6.6 5 Sudeste 7 Este 0.2 921.6 0.3 91
2020-03-21 08:00:00 6.4 4 Sudoeste 11 Oeste 0.4 921.7 0.1 93
2020-03-21 07:00:00 6.6 6 Sudoeste 8 Sudoeste 0.6 921.4 -0.3 93
2020-03-21 06:00:00 6.7 4 Sudoeste 15 Sudoeste 0.4 921.3 -0.1 92
2020-03-21 05:00:00 7 11 Sudoeste 25 Sudoeste 0.6 921.6 0.3 92
2020-03-21 04:00:00 8.3 17 Sudoeste 25 Sudoeste 1 921.7 -0.3 92
2020-03-21 03:00:00 9.2 13 Sudeste 24 Sudeste 0 921.4 -1.1 83
2020-03-21 02:00:00 8.2 14 Este 23 Este 0 921.3 -1.7 92
2020-03-21 01:00:00 8.2 11 Este 16 Este 0 922 -1.6 92
2020-03-21 00:00:00 7.9 5 Nordeste 12 Nordeste 0 922.5 -0.5 91
2020-03-20 23:00:00 8.9 4 Norte 10 Sudeste 0.4 923 -0.2 91
2020-03-20 22:00:00 9.3 8 Sur 18 Este 1.2 923.6 0.2 90
2020-03-20 21:00:00 9.3 13 Este 21 Este 0 923 -0.2 89
2020-03-20 20:00:00 9.4 10 Este 19 Este 0.6 923.2 -0.4 88
2020-03-20 19:00:00 10.2 11 Sudeste 20 Sudeste 0.2 923.4 -0.6 84
2020-03-20 18:00:00 10 10 Sudeste 23 Sudeste 0.2 923.2 -1.5 87
2020-03-20 17:00:00 10 9 Sudeste 30 Sudeste 0.2 923.6 -1.6 87
2020-03-20 16:00:00 9.7 15 Sudeste 29 Sudeste 0.2 924 -1.7 87
2020-03-20 15:00:00 8.6 16 Sudeste 28 Sudeste 1.4 924.7 -1.1 90
2020-03-20 14:00:00 8.7 11 Sudeste 24 Sudeste 4.2 925.2 -0.3 89
2020-03-20 13:00:00 9.4 11 Sur 22 Sudoeste 2 925.7 0.7 89
2020-03-20 12:00:00 9.9 5 Sur 15 Sudoeste 1 925.8 1.3 87
2020-03-20 11:00:00 10.1 10 Sudoeste 18 Sudoeste 0.2 925.5 1.1 85
2020-03-20 10:00:00 10.5 9 Sudoeste 16 Sudoeste 0 925 0.6 81
2020-03-20 09:00:00 9.8 9 Nordeste 11 Nordeste 0 924.5 0.1 87
2020-03-20 08:00:00 9.4 4 Nordeste 12 Este 0 924.4 -0.3 84
2020-03-20 07:00:00 9.3 6 Este 14 Nordeste 0 924.4 -0.6 86
2020-03-20 06:00:00 9.3 9 Nordeste 12 Nordeste 0 924.4 -1 87
2020-03-20 05:00:00 9.5 8 Este 15 Sudeste 0 924.7 -0.9 85
2020-03-20 04:00:00 9.2 5 Sudeste 8 Sudeste 0 925 -0.9 80
2020-03-20 03:00:00 9.2 3 Este 4 Este 0 925.4 -1 84
2020-03-20 02:00:00 9.6 0 Calma 4 Sur 0 925.6 -1.3 83
2020-03-20 01:00:00 10.2 2 Sur 5 Sur 0 925.9 -0.9 81
2020-03-20 00:00:00 10.6 3 Sudoeste 10 Sur 0 926.4 -0.3 80
2020-03-19 23:00:00 11.3 6 Sur 11 Sudoeste 0 926.9 0.2 80
2020-03-19 22:00:00 11.9 6 Sur 10 Sudeste 0 926.8 0.1 78
2020-03-19 21:00:00 12.1 6 Sudeste 10 Sudeste 0 926.7 -0.1 77
2020-03-19 20:00:00 12.2 4 Este 10 Sudeste 0 926.7 -0.5 75
2020-03-19 19:00:00 13.4 6 Sudeste 12 Este 0 926.7 -1 70
2020-03-19 18:00:00 14.6 8 Sudeste 13 Sudeste 0 926.8 -1.6 66
2020-03-19 17:00:00 15.3 9 Este 16 Este 0 927.2 -1.9 64
2020-03-19 16:00:00 15.9 9 Nordeste 15 Sudeste 0 927.7 -2.1 66
2020-03-19 15:00:00 15.7 9 Nordeste 14 Nordeste 0 928.4 -2 65
2020-03-19 14:00:00 16.4 7 Nordeste 13 Nordeste 0 929.1 -1.9 60
2020-03-19 13:00:00 15.6 4 Nordeste 14 Norte 0 929.8 -1.2 65
2020-03-19 12:00:00 15.6 7 Noroeste 14 Noroeste 0 930.4 -0.4 61
2020-03-19 11:00:00 14.8 4 Noroeste 10 Noroeste 0 931 0.3 64
2020-03-19 10:00:00 12.2 3 Este 6 Este 0 931 0.2 74
2020-03-19 09:00:00 8.9 3 Este 6 Nordeste 0 930.8 0.1 84
2020-03-19 08:00:00 7 5 Nordeste 8 Nordeste 0 930.7 0.1 84
2020-03-19 07:00:00 6.8 6 Este 9 Norte 0 930.8 0.1 84
2020-03-19 06:00:00 7 4 Nordeste 5 Nordeste 0 930.7 -0.7 82
2020-03-19 05:00:00 7.5 0 Calma 4 Este 0 930.6 -1.3 79
2020-03-19 04:00:00 8.2 2 Sudeste 10 Este 0 930.7 -1.4 77
2020-03-19 03:00:00 9.1 3 Sur 13 Este 0 931.4 -1.1 76
2020-03-19 02:00:00 9.6 9 Este 14 Este 0 931.9 -0.7 77
2020-03-19 01:00:00 10 4 Este 17 Este 0 932.1 -0.7 78
2020-03-19 00:00:00 10.8 13 Este 20 Este 0 932.5 -0.4 77
2020-03-18 23:00:00 11.3 12 Este 20 Este 0 932.6 -0.2 82
2020-03-18 22:00:00 11.8 15 Este 21 Este 0 932.8 0.1 82
2020-03-18 21:00:00 12.4 13 Este 20 Este 0 932.9 0.3 77
2020-03-18 20:00:00 13.2 16 Este 23 Este 0 932.8 0.2 74
2020-03-18 19:00:00 14.6 14 Nordeste 30 Este 0 932.7 -0.3 67
2020-03-18 18:00:00 16.4 21 Este 29 Este 0 932.6 -0.8 62
2020-03-18 17:00:00 17.9 18 Este 27 Este 0 932.6 -1.3 56
2020-03-18 16:00:00 17.6 17 Este 28 Este 0 933 -1.4 55
2020-03-18 15:00:00 17 19 Este 35 Este 0 933.4 -1.5 54
2020-03-18 14:00:00 16.9 21 Este 38 Este 0 933.9 -1.4 56
2020-03-18 13:00:00 15.5 26 Este 40 Este 0 934.4 -0.9 62
2020-03-18 12:00:00 13.2 22 Este 36 Este 0 934.9 -0.1 75
2020-03-18 11:00:00 12.3 19 Este 29 Nordeste 0 935.3 0.3 78
2020-03-18 10:00:00 9.9 18 Nordeste 31 Nordeste 0 935.3 0.3 87
2020-03-18 09:00:00 7.2 18 Nordeste 26 Nordeste 0 935 0.2 94
2020-03-18 08:00:00 5.8 18 Nordeste 29 Nordeste 0 935 0.1 94
2020-03-18 07:00:00 6.1 14 Nordeste 26 Nordeste 0 935 0 94
2020-03-18 06:00:00 6.4 18 Nordeste 31 Nordeste 0 934.8 -0.4 94
2020-03-18 05:00:00 6.7 23 Nordeste 33 Nordeste 0 934.9 -0.4 94
2020-03-18 04:00:00 6.6 18 Nordeste 32 Nordeste 0 935 -0.9 92
2020-03-18 03:00:00 7.2 15 Nordeste 24 Nordeste 0 935.2 -0.8 91
2020-03-18 02:00:00 7.7 19 Nordeste 28 Nordeste 0 935.3 -0.8 88
2020-03-18 01:00:00 8.2 14 Nordeste 25 Este 0 935.9 0 88
2020-03-18 00:00:00 8.5 15 Nordeste 26 Nordeste 0 936 0.7 89
2020-03-17 23:00:00 9.1 17 Nordeste 30 Este 0 936.1 1.6 88
2020-03-17 22:00:00 9.6 15 Nordeste 25 Nordeste 0 935.9 1.7 87
2020-03-17 21:00:00 10.5 17 Este 27 Nordeste 0 935.3 1.5 84
2020-03-17 20:00:00 11.4 19 Nordeste 27 Nordeste 0 934.5 0.8 79
2020-03-17 19:00:00 13.3 12 Nordeste 42 Este 0 934.2 0.6 64
2020-03-17 18:00:00 14.1 28 Este 41 Este 0 933.8 0 59
2020-03-17 17:00:00 13.7 20 Este 45 Este 0 933.7 -0.3 61
2020-03-17 16:00:00 14.1 24 Este 40 Este 0 933.6 -0.6 64
2020-03-17 15:00:00 12.3 23 Este 37 Este 0 933.8 -0.5 73
2020-03-17 14:00:00 11.3 24 Nordeste 40 Este 0 934 -0.1 76
2020-03-17 13:00:00 9.7 22 Este 35 Este 0 934.2 0.6 85
2020-03-17 12:00:00 7.7 17 Nordeste 34 Nordeste 0 934.3 1.6 92
2020-03-17 11:00:00 7.5 22 Nordeste 39 Nordeste 0 934.1 1.9 87
2020-03-17 10:00:00 6.9 23 Nordeste 40 Nordeste 0 933.6 1.9 87
2020-03-17 09:00:00 5.7 23 Nordeste 37 Nordeste 0 932.7 1.6 90
2020-03-17 08:00:00 5.4 22 Nordeste 36 Nordeste 0 932.2 1.6 91
2020-03-17 07:00:00 5.2 22 Nordeste 40 Nordeste 0 931.7 1.9 91
2020-03-17 06:00:00 4.9 22 Nordeste 33 Nordeste 0 931.1 1.1 91
2020-03-17 05:00:00 4.7 24 Nordeste 44 Nordeste 0 930.6 0.5 91
2020-03-17 04:00:00 4.4 28 Nordeste 53 Nordeste 0 929.8 0 90
2020-03-17 03:00:00 4.6 36 Nordeste 54 Nordeste 0.2 930 0.7 88
2020-03-17 02:00:00 5 35 Nordeste 59 Nordeste 0 930.1 0.7 85
2020-03-17 01:00:00 5.2 26 Nordeste 51 Nordeste 0 929.8 1.2 81
2020-03-17 00:00:00 4.7 24 Nordeste 44 Nordeste 0 929.3 0.9 85
2020-03-16 23:00:00 5.2 28 Nordeste 46 Nordeste 0 929.4 1.4 81
2020-03-16 22:00:00 5.6 22 Nordeste 43 Nordeste 0 928.6 1.3 78
2020-03-16 21:00:00 5.5 24 Nordeste 44 Nordeste 0.2 928.4 1.8 81
2020-03-16 20:00:00 6.1 20 Nordeste 33 Nordeste 0 928 1.6 75
2020-03-16 19:00:00 6.8 22 Nordeste 36 Nordeste 0 927.3 1.2 75
2020-03-16 18:00:00 8.2 25 Nordeste 49 Nordeste 0 926.6 0.2 57
2020-03-16 17:00:00 7.9 14 Norte 45 Noroeste 0 926.4 -0.8 56
2020-03-16 16:00:00 6.9 21 Noroeste 39 Norte 0.2 926.1 -1.2 69
2020-03-16 15:00:00 6.8 22 Noroeste 35 Noroeste 0 926.4 -0.5 71
2020-03-16 14:00:00 4.3 20 Norte 37 Nordeste 0.6 927.2 0.7 83
2020-03-16 13:00:00 6 31 Nordeste 50 Nordeste 0 927.3 1.1 63
2020-03-16 12:00:00 7 18 Noroeste 36 Noroeste 0 926.9 1.1 62
2020-03-16 11:00:00 6.8 20 Noroeste 36 Noroeste 0 926.5 1.2 73
2020-03-16 10:00:00 4.5 21 Noroeste 34 Noroeste 0 926.2 1.6 77
2020-03-16 09:00:00 2.4 20 Noroeste 27 Noroeste 0 925.8 1.8 90
2020-03-16 08:00:00 1.8 13 Noroeste 25 Noroeste 0.2 925.3 1.3 92
2020-03-16 07:00:00 1.7 16 Noroeste 28 Noroeste 0 924.6 0.5 92
2020-03-16 06:00:00 1.6 18 Noroeste 26 Noroeste 0 924 -0.5 93
2020-03-16 05:00:00 1.4 17 Noroeste 25 Noroeste 0.2 924 -0.5 93
2020-03-16 04:00:00 1.5 14 Noroeste 24 Noroeste 0 924.1 -0.6 93
2020-03-16 03:00:00 1.5 20 Noroeste 35 Noroeste 0 924.5 -0.6 92
2020-03-16 02:00:00 1.6 18 Noroeste 29 Noroeste 0 924.5 -0.7 91
2020-03-16 01:00:00 1.3 18 Oeste 29 Oeste 0 924.7 -0.1 91
2020-03-16 00:00:00 1 18 Oeste 30 Oeste 0 925.1 0.7 90
2020-03-15 23:00:00 1.5 24 Oeste 41 Oeste 0 925.2 1.7 89
2020-03-15 22:00:00 2.8 22 Oeste 40 Oeste 0 924.8 2.5 91
2020-03-15 21:00:00 3.2 19 Oeste 42 Noroeste 0.6 924.4 2.1 89
2020-03-15 20:00:00 4.7 30 Noroeste 54 Oeste 0 923.5 0.5 85
2020-03-15 19:00:00 10.5 30 Oeste 43 Oeste 0 922.3 -1.1 64
2020-03-15 18:00:00 13.8 26 Oeste 39 Oeste 0 922.3 -1.6 50
2020-03-15 17:00:00 14.3 28 Oeste 43 Oeste 0 923 -0.9 51
2020-03-15 16:00:00 15.5 27 Oeste 45 Oeste 0 923.4 -1 55
2020-03-15 15:00:00 13.8 27 Oeste 50 Oeste 0 923.9 -1.4 61
2020-03-15 14:00:00 17 32 Oeste 48 Oeste 0 923.9 -2.1 57
2020-03-15 13:00:00 17.3 17 Sudoeste 26 Oeste 0 924.4 -1.5 50
2020-03-15 12:00:00 15.6 19 Sudoeste 32 Oeste 0 925.3 -0.7 52
2020-03-15 11:00:00 15.2 20 Oeste 26 Oeste 0 926 -0.2 52
2020-03-15 10:00:00 12.3 4 Sur 8 Sur 0 925.9 -0.2 51
2020-03-15 09:00:00 7.3 3 Sur 6 Sur 0 926 -0.3 63
2020-03-15 08:00:00 2.5 3 Sur 9 Sur 0 926.2 -0.4 75
2020-03-15 07:00:00 2.1 5 Sur 10 Sur 0 926.1 -1.1 72
2020-03-15 06:00:00 2.8 6 Sur 11 Sur 0 926.3 -1.7 68
2020-03-15 05:00:00 3.5 2 Sudeste 5 Sur 0 926.6 -1.9 63
2020-03-15 04:00:00 5.3 2 Sur 7 Este 0 927.2 -1.8 56
2020-03-15 03:00:00 6.1 4 Sudeste 12 Sur 0 928 -1.5 54
2020-03-15 02:00:00 6.4 3 Sudeste 10 Sudeste 0 928.5 -1.2 52
2020-03-15 01:00:00 7 3 Este 8 Este 0 929 -0.7 52
2020-03-15 00:00:00 6.3 5 Sur 7 Sur 0 929.5 -0.3 58
2020-03-14 23:00:00 7.1 3 Este 6 Este 0 929.7 0 54
2020-03-14 22:00:00 8.1 4 Este 8 Este 0 929.7 0.1 54
2020-03-14 21:00:00 10.1 3 Este 6 Este 0 929.8 0.1 50
2020-03-14 20:00:00 12.9 4 Nordeste 6 Norte 0 929.7 -0.1 42
2020-03-14 19:00:00 17.7 3 Norte 9 Norte 0 929.6 -0.7 29
2020-03-14 18:00:00 18.7 6 Norte 10 Norte 0 929.7 -1.1 27
2020-03-14 17:00:00 19.8 6 Este 12 Nordeste 0 929.8 -1.9 28
2020-03-14 16:00:00 19.5 6 Sudeste 15 Nordeste 0 930.3 -1.9 26
2020-03-14 15:00:00 18.9 8 Este 17 Sudeste 0 930.8 -1.6 32
2020-03-14 14:00:00 17.5 6 Sudeste 23 Este 0 931.7 -0.9 31
2020-03-14 13:00:00 16.3 14 Este 21 Este 0 932.2 -0.3 46
2020-03-14 12:00:00 15.1 13 Nordeste 23 Nordeste 0 932.4 0.1 56
2020-03-14 11:00:00 13 14 Este 24 Este 0 932.6 0.6 64
2020-03-14 10:00:00 9.9 9 Nordeste 17 Este 0 932.5 0.6 78
2020-03-14 09:00:00 5.8 10 Este 15 Nordeste 0 932.3 0.8 88
2020-03-14 08:00:00 3.1 9 Este 19 Este 0 932 0.7 92
2020-03-14 07:00:00 3.5 10 Este 20 Este 0 931.9 0.4 92
2020-03-14 06:00:00 3.7 11 Nordeste 17 Este 0 931.5 -0.3 91
2020-03-14 05:00:00 4.3 9 Nordeste 14 Nordeste 0 931.3 -0.5 89
2020-03-14 04:00:00 4.8 9 Este 14 Este 0 931.5 -0.4 89
2020-03-14 03:00:00 5.8 10 Nordeste 18 Nordeste 0 931.8 0.2 87
2020-03-14 02:00:00 6.4 10 Nordeste 16 Este 0 931.8 0 87
2020-03-14 01:00:00 7 11 Nordeste 17 Nordeste 0 931.9 0.8 86
2020-03-14 00:00:00 7.3 7 Este 11 Este 0 931.6 0.9 84
2020-03-13 23:00:00 8 8 Nordeste 14 Nordeste 0 931.8 1.7 84
2020-03-13 22:00:00 9 9 Este 18 Este 0 931.1 1.3 81
2020-03-13 21:00:00 10 7 Nordeste 13 Este 0 930.7 1 77
2020-03-13 20:00:00 11.5 9 Este 14 Este 0 930.1 0.4 71
2020-03-13 19:00:00 14.3 10 Nordeste 22 Nordeste 0 929.8 -0.1 63
2020-03-13 18:00:00 15.6 15 Nordeste 24 Nordeste 0 929.7 -0.3 58
2020-03-13 17:00:00 15.6 12 Nordeste 21 Nordeste 0 929.7 -0.8 60
2020-03-13 16:00:00 15.1 15 Nordeste 24 Nordeste 0 929.9 -1.1 60
2020-03-13 15:00:00 15.8 14 Nordeste 27 Nordeste 0 930 -1.3 63
2020-03-13 14:00:00 14.9 15 Nordeste 26 Nordeste 0 930.5 -0.6 66
2020-03-13 13:00:00 12.7 14 Nordeste 23 Nordeste 0 931 -0.2 73
2020-03-13 12:00:00 11.8 14 Nordeste 26 Nordeste 0 931.3 0.3 77
2020-03-13 11:00:00 9.4 18 Nordeste 28 Este 0 931.1 0.6 83
2020-03-13 10:00:00 8.1 17 Este 28 Este 0 931.2 1.1 87
2020-03-13 09:00:00 7.3 21 Este 34 Nordeste 0 931 1.2 88
2020-03-13 08:00:00 6.7 21 Nordeste 36 Nordeste 0 930.5 0.9 90
2020-03-13 07:00:00 7.1 22 Nordeste 35 Nordeste 0 930.1 0.5 90
2020-03-13 06:00:00 7.6 15 Nordeste 30 Nordeste 0 929.8 -0.2 92
2020-03-13 05:00:00 7.4 17 Nordeste 27 Nordeste 0 929.6 -0.4 93
2020-03-13 04:00:00 7.2 12 Nordeste 22 Nordeste 0 929.6 -0.5 91
2020-03-13 03:00:00 7.7 14 Nordeste 22 Nordeste 0 930 -0.4 90
2020-03-13 02:00:00 8.6 17 Nordeste 26 Nordeste 0 930 -0.2 89
2020-03-13 01:00:00 9.5 15 Nordeste 25 Nordeste 0 930.1 0.1 86
2020-03-13 00:00:00 11.3 17 Nordeste 27 Nordeste 0 930.4 0.8 83
2020-03-12 23:00:00 12.1 5 Norte 10 Norte 0 930.2 1.2 73
2020-03-12 22:00:00 12.9 3 Noroeste 13 Noroeste 0 930 1.1 70
2020-03-12 21:00:00 14.4 10 Noroeste 14 Norte 0 929.6 0.9 66
2020-03-12 20:00:00 15.7 8 Noroeste 14 Oeste 0 929 0.3 68
2020-03-12 19:00:00 17.9 10 Oeste 14 Oeste 0 928.9 -0.1 66
2020-03-12 18:00:00 20.5 9 Oeste 12 Oeste 0 928.7 -0.8 53
2020-03-12 17:00:00 20.2 6 Noroeste 16 Noroeste 0 928.7 -1.7 53
2020-03-12 16:00:00 21.1 12 Oeste 18 Noroeste 0 929 -1.8 51
2020-03-12 15:00:00 23.1 12 Oeste 23 Oeste 0 929.5 -1.6 46
2020-03-12 14:00:00 23.3 15 Oeste 22 Oeste 0 930.4 -0.7 45
2020-03-12 13:00:00 22.2 9 Sudoeste 15 Oeste 0 930.8 -0.3 48
2020-03-12 12:00:00 20.2 8 Sudoeste 16 Oeste 0 931.1 0 49
2020-03-12 11:00:00 19.9 6 Oeste 12 Oeste 0 931.1 0.5 49
2020-03-12 10:00:00 15.5 3 Sudoeste 10 Sudoeste 0 931.1 0.6 58
2020-03-12 09:00:00 11.2 3 Sur 7 Sudeste 0 931.1 0.6 77
2020-03-12 08:00:00 9.2 3 Sudeste 5 Sudeste 0 930.6 -0.2 76
2020-03-12 07:00:00 9.2 0 Calma 5 Sudeste 0 930.5 -0.9 75
2020-03-12 06:00:00 9.8 3 Este 4 Nordeste 0 930.5 -1.4 73
2020-03-12 05:00:00 10.5 0 Calma 4 Sudeste 0 930.8 -1.5 73
2020-03-12 04:00:00 10.9 4 Sur 5 Sur 0 931.4 -1.2 74
2020-03-12 03:00:00 11.4 2 Sur 7 Sur 0 931.9 -1.1 73
2020-03-12 02:00:00 11.8 5 Sur 7 Sudeste 0 932.3 -0.8 71
2020-03-12 01:00:00 12 2 Sur 6 Sudeste 0 932.6 -0.5 71
2020-03-12 00:00:00 12.6 3 Este 4 Sur 0 933 -0.2 72
2020-03-11 23:00:00 14 3 Sur 5 Sur 0 933.1 -0.1 67
2020-03-11 22:00:00 14.9 0 Calma 4 Sur 0 933.1 0 66
2020-03-11 21:00:00 16.7 3 Sudoeste 9 Sudeste 0 933.2 0.2 60
2020-03-11 20:00:00 18.3 3 Sudeste 9 Sudeste 0 933.2 0.1 52
2020-03-11 19:00:00 20.4 0 Calma 6 Norte 0 933.1 -0.3 45
2020-03-11 18:00:00 21.8 5 Norte 17 Noroeste 0 933 -0.9 44
2020-03-11 17:00:00 24.8 9 Noroeste 15 Oeste 0 933.1 -1.5 35
2020-03-11 16:00:00 25.5 7 Oeste 15 Oeste 0 933.4 -1.7 35
2020-03-11 15:00:00 25.8 11 Oeste 21 Oeste 0 933.9 -1.6 30
2020-03-11 14:00:00 24.7 8 Oeste 21 Oeste 0 934.6 -1.1 35
2020-03-11 13:00:00 22.7 10 Sudoeste 16 Sudoeste 0 935.1 -0.4 40
2020-03-11 12:00:00 20.9 6 Sudoeste 10 Sudoeste 0 935.5 0.4 48
2020-03-11 11:00:00 18.4 3 Sur 6 Sudeste 0 935.7 0.7 51
2020-03-11 10:00:00 15.3 4 Sudeste 6 Sur 0 935.5 0.5 58
2020-03-11 09:00:00 10.1 3 Este 4 Este 0 935.1 0.1 85
2020-03-11 08:00:00 5.3 3 Este 5 Sudeste 0 935 -0.1 86
2020-03-11 07:00:00 5.2 2 Este 4 Este 0 935 -0.5 85
2020-03-11 06:00:00 5.9 2 Sudeste 6 Sur 0 935 -1.1 83
2020-03-11 05:00:00 6.1 2 Sudeste 3 Sudeste 0 935.1 -1.2 82
2020-03-11 04:00:00 6.5 2 Sudeste 4 Sur 0 935.5 -1.3 80
2020-03-11 03:00:00 7.5 2 Sudeste 6 Sur 0 936.1 -0.9 73
2020-03-11 02:00:00 8 4 Sur 6 Sur 0 936.3 -1 67
2020-03-11 01:00:00 9 3 Sur 7 Sur 0 936.8 -0.2 64
2020-03-11 00:00:00 9.8 3 Sudeste 8 Sur 0 937 0.2 66
2020-03-10 23:00:00 10.1 5 Sur 7 Sur 0 937.3 0.7 72
2020-03-10 22:00:00 11.5 3 Sur 7 Oeste 0 937 0.9 67
2020-03-10 21:00:00 13.4 3 Oeste 15 Noroeste 0 936.8 0.8 60
2020-03-10 20:00:00 15.3 13 Noroeste 15 Noroeste 0 936.6 0.5 59
2020-03-10 19:00:00 19.7 9 Noroeste 14 Noroeste 0 936.1 -0.4 52
2020-03-10 18:00:00 22.6 10 Oeste 17 Oeste 0 936 -0.9 41
2020-03-10 17:00:00 23.1 10 Oeste 20 Oeste 0 936.1 -1.4 41
2020-03-10 16:00:00 22.6 13 Oeste 21 Sudoeste 0 936.5 -1.5 42
2020-03-10 15:00:00 22.4 16 Sudoeste 22 Oeste 0 936.9 -1.3 42
2020-03-10 14:00:00 21 10 Sudoeste 18 Sudoeste 0 937.5 -0.9 45
2020-03-10 13:00:00 19.4 8 Sudoeste 14 Sudoeste 0 938 -0.3 47
2020-03-10 12:00:00 16.7 5 Sudoeste 10 Sudoeste 0 938.2 0.4 47
2020-03-10 11:00:00 14.3 6 Sudoeste 12 Sudoeste 0 938.4 1.1 62
2020-03-10 10:00:00 10 0 Calma 7 Sur 0 938.3 0.9 79
2020-03-10 09:00:00 6.1 5 Sur 12 Sur 0 937.8 0.4 89
2020-03-10 08:00:00 4.3 3 Sur 5 Sur 0 937.3 -0.2 90
2020-03-10 07:00:00 4.4 3 Este 4 Nordeste 0 937.4 -0.3 89
2020-03-10 06:00:00 5.1 0 Calma 10 Sur 0 937.4 -0.5 87
2020-03-10 05:00:00 4.8 5 Sur 10 Sur 0 937.5 -0.8 88
2020-03-10 04:00:00 4.1 7 Sudoeste 9 Sur 0 937.7 -0.6 87
2020-03-10 03:00:00 4.4 6 Sudoeste 8 Sudoeste 0 937.9 -0.4 83
2020-03-10 02:00:00 5 4 Sudoeste 5 Sur 0 938.3 0 81
2020-03-10 01:00:00 5.3 4 Sur 8 Sur 0 938.3 0 80
2020-03-10 00:00:00 5.5 2 Sur 6 Sur 0 938.3 0.6 77
2020-03-09 23:00:00 6.4 3 Sur 4 Sur 0 938.3 0.6 74
2020-03-09 22:00:00 7.6 0 Calma 6 Sudoeste 0 938.3 0.9 69
2020-03-09 21:00:00 8.8 4 Sur 8 Sudoeste 0 937.7 0.4 65
2020-03-09 20:00:00 10.6 4 Sudoeste 9 Sudoeste 0 937.7 0.3 60
2020-03-09 19:00:00 13.6 6 Oeste 17 Oeste 0 937.4 -0.4 53
2020-03-09 18:00:00 15.2 11 Oeste 18 Oeste 0 937.3 -0.8 46
2020-03-09 17:00:00 17 10 Oeste 19 Sudoeste 0 937.4 -1.4 46
2020-03-09 16:00:00 16 9 Oeste 15 Oeste 0 937.8 -1.4 51
2020-03-09 15:00:00 15.9 7 Oeste 19 Oeste 0 938.1 -1.3 50
2020-03-09 14:00:00 15.5 12 Oeste 19 Oeste 0 938.8 -0.6 53
2020-03-09 13:00:00 13.9 9 Oeste 21 Oeste 0 939.2 -0.1 58
2020-03-09 12:00:00 12 11 Noroeste 18 Oeste 0 939.4 0.9 59
2020-03-09 11:00:00 10.6 9 Oeste 15 Oeste 0 939.4 1.4 73
2020-03-09 10:00:00 7.8 9 Oeste 13 Noroeste 0 939.3 1.6 88
2020-03-09 09:00:00 3.7 6 Sur 12 Sudoeste 0 938.5 0.9 95
2020-03-09 08:00:00 1.8 3 Sudeste 18 Oeste 0 938 0.2 94
2020-03-09 07:00:00 1.6 10 Oeste 15 Oeste 0 937.7 0.1 93
2020-03-09 06:00:00 2.3 4 Oeste 21 Oeste 0 937.6 -0.4 92
2020-03-09 05:00:00 2.5 15 Oeste 20 Oeste 0 937.8 -0.6 92
2020-03-09 04:00:00 3.8 14 Oeste 21 Noroeste 0 937.6 -0.6 92
2020-03-09 03:00:00 4.6 15 Noroeste 24 Noroeste 0 938 -0.1 92
2020-03-09 02:00:00 5.6 15 Noroeste 22 Noroeste 0 938.4 0.5 93
2020-03-09 01:00:00 4.8 11 Oeste 20 Oeste 0 938.2 0.5 93
2020-03-09 00:00:00 5.2 3 Oeste 12 Oeste 0 938.1 0.8 92
2020-03-08 23:00:00 6.3 10 Oeste 13 Oeste 0 937.9 1 92
2020-03-08 22:00:00 6.2 7 Oeste 20 Oeste 0 937.7 1.1 90
2020-03-08 21:00:00 7.7 16 Oeste 22 Oeste 0 937.3 0.8 87
2020-03-08 20:00:00 10 14 Sudoeste 17 Sudoeste 0 936.9 0.4 84
2020-03-08 19:00:00 10.4 6 Oeste 23 Oeste 0 936.6 0.2 79
2020-03-08 18:00:00 11.5 15 Oeste 21 Oeste 0 936.5 -0.2 76
2020-03-08 17:00:00 11.9 14 Oeste 24 Oeste 0 936.5 -0.5 70
2020-03-08 16:00:00 10.9 14 Oeste 23 Oeste 0 936.4 -1.1 72
2020-03-08 15:00:00 11.1 16 Oeste 23 Oeste 0 936.7 -0.8 69
2020-03-08 14:00:00 10.1 13 Oeste 27 Oeste 0 937 -0.6 72
2020-03-08 13:00:00 8.6 13 Oeste 22 Oeste 0 937.5 0.4 79
2020-03-08 12:00:00 8.5 13 Oeste 21 Oeste 0 937.5 1 83
2020-03-08 11:00:00 6.9 12 Oeste 18 Oeste 0 937.6 1.3 94
2020-03-08 10:00:00 4.4 8 Sudoeste 15 Sudoeste 0 937.1 1.5 95
2020-03-08 09:00:00 2.8 6 Sudoeste 10 Sudoeste 0 936.5 0.7 96
2020-03-08 08:00:00 1.9 6 Sudoeste 9 Sudoeste 0 936.3 0.8 95
2020-03-08 07:00:00 1.1 4 Sur 10 Sur 0 935.6 0.1 95
2020-03-08 06:00:00 1.1 3 Sudoeste 7 Sudoeste 0 935.8 -0.2 94
2020-03-08 05:00:00 1.2 2 Sur 6 Sur 0 935.5 -0.4 92
2020-03-08 04:00:00 1.8 4 Sur 9 Sur 0 935.5 -0.5 90
2020-03-08 03:00:00 2.3 4 Sur 10 Sur 0 936 -0.3 88
2020-03-08 02:00:00 3.2 6 Sur 9 Sur 0 935.9 -0.9 85
2020-03-08 01:00:00 4 3 Sur 10 Sudeste 0 936 -0.8 79
2020-03-08 00:00:00 4.3 6 Sur 9 Sudeste 0 936.3 -0.3 77
2020-03-07 23:00:00 4.8 4 Este 4 Sudeste 0 936.8 0.3 74
2020-03-07 22:00:00 5.5 2 Este 4 Este 0 936.8 0.6 72
2020-03-07 21:00:00 7.1 2 Sudeste 5 Oeste 0 936.6 0.8 68
2020-03-07 20:00:00 9.1 4 Oeste 11 Oeste 0 936.5 0.2 61
2020-03-07 19:00:00 13 9 Oeste 17 Oeste 0 936.2 -0.3 55
2020-03-07 18:00:00 15.7 10 Oeste 21 Oeste 0 935.8 -1 48
2020-03-07 17:00:00 16.5 11 Oeste 19 Oeste 0 936.3 -1.3 48
2020-03-07 16:00:00 16.6 10 Oeste 19 Oeste 0 936.5 -1.8 50
2020-03-07 15:00:00 15.5 7 Oeste 12 Sudoeste 0 936.8 -1.6 50
2020-03-07 14:00:00 13.7 4 Este 13 Este 0 937.6 -0.7 58
2020-03-07 13:00:00 13.2 4 Sudoeste 12 Sudeste 0 938.3 0.3 59
2020-03-07 12:00:00 11.3 4 Noroeste 11 Oeste 0 938.4 0.9 65
2020-03-07 11:00:00 9.8 5 Oeste 13 Oeste 0 938.3 1 74
2020-03-07 10:00:00 6.7 7 Sudoeste 11 Sudoeste 0 938 0.8 85
2020-03-07 09:00:00 3.1 4 Sur 8 Sur 0 937.5 0.7 93
2020-03-07 08:00:00 1 4 Sudoeste 12 Sudoeste 0 937.3 0.7 92
2020-03-07 07:00:00 1.6 7 Sur 11 Oeste 0 937.2 0.4 92
2020-03-07 06:00:00 1.6 8 Oeste 16 Noroeste 0 936.8 -0.3 89
2020-03-07 05:00:00 2.1 12 Noroeste 15 Noroeste 0 936.6 -0.6 90
2020-03-07 04:00:00 1.9 9 Oeste 17 Oeste 0 936.8 -0.5 87
2020-03-07 03:00:00 2.3 9 Noroeste 14 Noroeste 0 937.1 -0.2 84
2020-03-07 02:00:00 1.9 6 Noroeste 13 Noroeste 0 937.2 0.3 83
2020-03-07 01:00:00 2.4 8 Noroeste 18 Noroeste 0 937.3 1.1 81
2020-03-07 00:00:00 3.2 8 Noroeste 27 Noroeste 0 937.3 1.6 73
2020-03-06 23:00:00 3.7 12 Noroeste 30 Noroeste 0 936.9 1.8 69
2020-03-06 22:00:00 3.8 18 Noroeste 27 Noroeste 0 936.2 1.9 73
2020-03-06 21:00:00 4.4 14 Noroeste 25 Noroeste 0 935.7 1.8 70
2020-03-06 20:00:00 5.3 11 Noroeste 37 Noroeste 0 935.1 2.4 65
2020-03-06 19:00:00 7.4 30 Noroeste 43 Noroeste 0 934.3 1.6 58
2020-03-06 18:00:00 9.7 22 Noroeste 48 Noroeste 0 933.9 1 50
2020-03-06 17:00:00 10.6 34 Noroeste 47 Noroeste 0 932.7 -0.8 49
2020-03-06 16:00:00 10.7 35 Noroeste 60 Oeste 0 932.7 -0.8 53
2020-03-06 15:00:00 11.3 31 Noroeste 51 Noroeste 0 932.9 -0.5 54
2020-03-06 14:00:00 9.7 30 Noroeste 53 Noroeste 0 933.5 0.9 61
2020-03-06 13:00:00 8.5 30 Noroeste 47 Noroeste 0 933.5 1.9 71
2020-03-06 12:00:00 7.5 26 Noroeste 50 Oeste 0 933.4 3 72
2020-03-06 11:00:00 5.9 27 Noroeste 50 Oeste 0 932.6 2.7 77
2020-03-06 10:00:00 5 22 Oeste 34 Oeste 0 931.6 2 85
2020-03-06 09:00:00 4.3 22 Oeste 31 Oeste 0 930.4 1.5 86
2020-03-06 08:00:00 3.8 17 Oeste 29 Oeste 0 929.9 1.9 85
2020-03-06 07:00:00 3.8 21 Oeste 33 Oeste 0 929.6 1.4 85
2020-03-06 06:00:00 4.3 23 Oeste 44 Oeste 0.2 928.9 0.7 88
2020-03-06 05:00:00 5.2 22 Oeste 35 Oeste 0 928 -0.1 90
2020-03-06 04:00:00 4.7 20 Oeste 42 Oeste 0 928.2 -0.6 89
2020-03-06 03:00:00 5.5 31 Oeste 49 Sudoeste 0.4 928.2 -0.8 92
2020-03-06 02:00:00 5.2 19 Sudoeste 30 Sudoeste 0 928.1 -1.2 91
2020-03-06 01:00:00 5.2 19 Sudoeste 33 Sudoeste 0 928.8 -0.4 90
2020-03-06 00:00:00 4.1 23 Sudoeste 32 Oeste 0 929 0.2 90
2020-03-05 23:00:00 4 17 Oeste 23 Sudoeste 0 929.3 1.2 89
2020-03-05 22:00:00 4.2 12 Oeste 24 Oeste 0 929.2 1.6 85
2020-03-05 21:00:00 5.5 22 Oeste 39 Oeste 0 928.8 2.1 82
2020-03-05 20:00:00 6.6 23 Oeste 47 Oeste 0.2 928.1 1.9 83
2020-03-05 19:00:00 8.8 26 Oeste 48 Oeste 0 927.6 2.1 75
2020-03-05 18:00:00 10.8 26 Oeste 41 Sudoeste 0 926.7 1.2 64
2020-03-05 17:00:00 11.2 26 Oeste 51 Oeste 0 926.2 0.2 66
2020-03-05 16:00:00 12.8 30 Oeste 55 Oeste 0 925.5 -1.1 65
2020-03-05 15:00:00 11.3 31 Oeste 50 Oeste 0 925.5 -0.7 74
2020-03-05 14:00:00 10.1 26 Oeste 40 Sudoeste 0 926 0 75
2020-03-05 13:00:00 9.4 27 Oeste 46 Oeste 0 926.6 1 76
2020-03-05 12:00:00 9.7 22 Sudoeste 42 Oeste 0 926.2 1.2 85
2020-03-05 11:00:00 10 27 Oeste 48 Oeste 0 926 3.1 79
2020-03-05 10:00:00 7.3 22 Sudoeste 40 Oeste 0.2 925.6 3.3 90
2020-03-05 09:00:00 7 32 Oeste 62 Oeste 0.6 925 1.7 92
2020-03-05 08:00:00 9 42 Oeste 62 Oeste 1.8 922.9 -1.2 92
2020-03-05 07:00:00 9.7 30 Sudoeste 45 Sudoeste 0.2 922.3 -2.6 92
2020-03-05 06:00:00 9.7 28 Sudoeste 41 Sudoeste 0 923.3 -3.5 89
2020-03-05 05:00:00 9.8 22 Sudoeste 49 Sudoeste 0 924.1 -3.5 91
2020-03-05 04:00:00 10 23 Sudoeste 42 Sudoeste 0 924.9 -3.7 94
2020-03-05 03:00:00 10.2 24 Sudoeste 44 Sudoeste 0 926.8 -2.3 94
2020-03-05 02:00:00 10.4 23 Sudoeste 44 Sudoeste 0.4 927.6 -2.3 94
2020-03-05 01:00:00 10.5 22 Sudoeste 35 Sudoeste 0.6 928.6 -1.5 93
2020-03-05 00:00:00 10.9 20 Sudoeste 31 Sudoeste 0 929.1 -1.4 91
2020-03-04 23:00:00 11 21 Sudoeste 35 Sudoeste 0 929.9 -0.9 90
2020-03-04 22:00:00 11.1 18 Sudoeste 34 Sudoeste 0 930.1 -0.5 90
2020-03-04 21:00:00 11.4 18 Sudoeste 27 Sudoeste 0 930.5 -0.1 89
2020-03-04 20:00:00 11.7 17 Sudoeste 32 Sudoeste 0 930.8 -0.5 85
2020-03-04 19:00:00 12.5 17 Sudoeste 31 Sudoeste 0 930.6 -1 79
2020-03-04 18:00:00 13.5 21 Sudoeste 30 Sudoeste 0 930.6 -1.8 75
2020-03-04 17:00:00 13.4 23 Sudoeste 35 Sudoeste 0 931.3 -1.6 73
2020-03-04 16:00:00 13.9 18 Sudoeste 29 Oeste 0 931.6 -1.9 75
2020-03-04 15:00:00 14.8 19 Sudoeste 31 Oeste 0 932.4 -1.2 73
2020-03-04 14:00:00 14.4 19 Oeste 31 Sudoeste 0 932.9 -0.7 70
2020-03-04 13:00:00 13.5 22 Oeste 35 Oeste 0 933.5 0.2 76
2020-03-04 12:00:00 13.2 19 Sudoeste 28 Oeste 0 933.6 0.7 86
2020-03-04 11:00:00 10.8 14 Sudoeste 22 Oeste 0 933.6 1 89
2020-03-04 10:00:00 10.2 15 Sudoeste 26 Sudoeste 0 933.3 1.1 93
2020-03-04 09:00:00 9.2 14 Sudoeste 27 Sudoeste 0 932.9 0.8 94
2020-03-04 08:00:00 9.2 12 Sudoeste 25 Sudoeste 0 932.6 0.4 94
2020-03-04 07:00:00 9.2 18 Sudoeste 28 Sudoeste 0 932.2 0.1 94
2020-03-04 06:00:00 9.6 18 Sudoeste 28 Sudoeste 0 932.1 -0.2 94
2020-03-04 05:00:00 9.8 16 Sudoeste 28 Sudoeste 0.2 932.2 -0.1 94
2020-03-04 04:00:00 10.2 19 Oeste 33 Sudoeste 0.2 932.1 -0.2 94
2020-03-04 03:00:00 10.5 21 Sudoeste 33 Sudoeste 0 932.3 0 93
2020-03-04 02:00:00 10.8 22 Sudoeste 35 Oeste 0 932.3 0.2 92
2020-03-04 01:00:00 11 23 Sudoeste 32 Sudoeste 0 932.3 0.6 92
2020-03-04 00:00:00 11.2 17 Sudoeste 33 Sudoeste 0 932.3 1.4 91
2020-03-03 23:00:00 11.4 16 Sudoeste 32 Oeste 0 932.1 1 91
2020-03-03 22:00:00 11.4 25 Oeste 34 Oeste 0 931.7 1.3 91
2020-03-03 21:00:00 11.6 19 Oeste 26 Oeste 0 930.9 1.3 87
2020-03-03 20:00:00 12.2 14 Oeste 25 Oeste 0 931.1 2 85
2020-03-03 19:00:00 12.6 15 Oeste 31 Oeste 0 930.4 1.5 84
2020-03-03 18:00:00 13.3 24 Oeste 44 Oeste 0 929.6 1.3 80
2020-03-03 17:00:00 13.8 26 Oeste 45 Oeste 0 929.1 0.5 78
2020-03-03 16:00:00 14.1 31 Oeste 59 Oeste 0 928.9 0.1 76
2020-03-03 15:00:00 15.9 43 Oeste 62 Oeste 0 928.3 -0.3 71
2020-03-03 14:00:00 13.7 36 Oeste 54 Oeste 0 928.6 0.3 82
2020-03-03 13:00:00 12.7 39 Oeste 55 Oeste 0 928.8 1 85
2020-03-03 12:00:00 11 34 Oeste 49 Sudoeste 0 928.6 1.1 88
2020-03-03 11:00:00 9.3 31 Sudoeste 50 Sudoeste 0 928.3 0.7 92
2020-03-03 10:00:00 8.3 31 Sudoeste 53 Sudoeste 0 927.8 -0.3 93
2020-03-03 09:00:00 7.3 28 Sudoeste 44 Sudoeste 0 927.5 -0.4 93
2020-03-03 08:00:00 6.8 29 Sudoeste 62 Sudoeste 0 927.6 0.2 91
2020-03-03 07:00:00 6.5 32 Sudoeste 49 Sudoeste 0 928.1 -0.2 90
2020-03-03 06:00:00 6.1 28 Sudoeste 48 Sudoeste 0 927.9 -1.1 91
2020-03-03 05:00:00 6.2 34 Sudoeste 49 Sudoeste 0 927.4 -2.5 91
2020-03-03 04:00:00 5.3 22 Sudoeste 34 Sudoeste 0 928.3 -1.9 89
2020-03-03 03:00:00 4.8 19 Sudoeste 28 Sudoeste 0 929 -1 89
2020-03-03 02:00:00 4 17 Sudoeste 27 Sudoeste 0 929.9 -0.2 89
2020-03-03 01:00:00 4.3 21 Sudoeste 31 Sudoeste 0 930.2 0.4 88
2020-03-03 00:00:00 4.1 21 Sudoeste 31 Sudoeste 0 930 0.8 86
2020-03-02 23:00:00 3 10 Sudoeste 14 Sudoeste 0 930.1 1 84
2020-03-02 22:00:00 2.6 8 Sudoeste 17 Oeste 0 929.8 1.6 84
2020-03-02 21:00:00 3.2 11 Sudoeste 20 Oeste 0 929.2 2 82
2020-03-02 20:00:00 4.3 13 Oeste 39 Noroeste 0 929.1 2.4 79
2020-03-02 19:00:00 5.7 21 Oeste 39 Oeste 0 928.2 2.1 73
2020-03-02 18:00:00 7.6 27 Oeste 40 Oeste 0 927.2 1.1 66
2020-03-02 17:00:00 8 22 Oeste 44 Oeste 0 926.7 1.2 71
2020-03-02 16:00:00 8.9 21 Oeste 41 Noroeste 0 926.1 1.6 72
2020-03-02 15:00:00 6.8 27 Oeste 46 Noroeste 0 926.1 3.1 81
2020-03-02 14:00:00 4.6 26 Noroeste 51 Oeste 0.2 925.5 3.3 82
2020-03-02 13:00:00 6.8 27 Oeste 49 Oeste 0.4 924.5 3 86
2020-03-02 12:00:00 9.9 38 Oeste 56 Oeste 0 923 2.9 62
2020-03-02 11:00:00 8.7 36 Oeste 57 Oeste 0 922.2 3.4 72
2020-03-02 10:00:00 6.2 33 Oeste 61 Oeste 0.2 921.5 3.6 83
2020-03-02 09:00:00 5.9 33 Oeste 49 Oeste 0 920.1 3.6 84
2020-03-02 08:00:00 5.7 34 Oeste 51 Sudoeste 0 918.8 3.7 83
2020-03-02 07:00:00 6.7 34 Oeste 69 Oeste 0 917.9 4.4 84
2020-03-02 06:00:00 7.8 41 Oeste 71 Oeste 0 916.5 2.7 82
2020-03-02 05:00:00 9.4 48 Oeste 93 Oeste 0 915.1 0.4 85
2020-03-02 04:00:00 10.4 48 Sudoeste 85 Sudoeste 0.2 913.5 -2.5 94
2020-03-02 03:00:00 10.2 48 Sudoeste 79 Sudoeste 1.4 913.8 -2.5 94
2020-03-02 02:00:00 9.4 41 Sudoeste 63 Sudoeste 0.4 914.7 -2.2 93
2020-03-02 01:00:00 9.4 37 Sudoeste 60 Sudoeste 1.2 916 -2 94
2020-03-02 00:00:00 9.2 37 Sudoeste 69 Sudoeste 1.4 916.3 -2.7 93